createdAt,value
2022-10-25T00:00:46.089Z,5.80
2022-10-25T00:03:17.860Z,5.50
2022-10-25T00:05:47.794Z,5.77
2022-10-25T00:08:17.053Z,5.47
2022-10-25T00:10:46.013Z,5.50
2022-10-25T00:13:16.358Z,6.17
2022-10-25T00:15:45.584Z,6.00
2022-10-25T00:18:14.844Z,5.63
2022-10-25T00:20:44.141Z,6.07
2022-10-25T00:23:13.029Z,5.20
2022-10-25T00:25:42.520Z,5.70
2022-10-25T00:28:11.716Z,5.73
2022-10-25T00:30:42.869Z,6.30
2022-10-25T00:33:13.340Z,5.87
2022-10-25T00:35:42.808Z,5.70
2022-10-25T00:38:12.040Z,6.40
2022-10-25T00:40:41.212Z,6.17
2022-10-25T00:43:11.600Z,5.80
2022-10-25T00:45:42.704Z,6.27
2022-10-25T00:48:13.512Z,5.93
2022-10-25T00:50:51.747Z,5.47
2022-10-25T00:53:24.972Z,5.37
2022-10-25T00:56:01.181Z,5.33
2022-10-25T00:58:34.100Z,5.33
2022-10-25T01:01:08.397Z,5.23
2022-10-25T01:03:41.432Z,5.57
2022-10-25T01:06:19.229Z,5.53
2022-10-25T01:08:49.974Z,5.47
2022-10-25T01:11:20.105Z,4.87
2022-10-25T01:13:50.431Z,6.20
2022-10-25T01:16:34.016Z,6.30
2022-10-25T01:19:19.102Z,7.27
2022-10-25T01:21:50.685Z,6.83
2022-10-25T01:24:53.639Z,7.27
2022-10-25T01:27:47.636Z,8.13
2022-10-25T01:30:23.201Z,8.60
2022-10-25T01:33:07.871Z,8.63
2022-10-25T01:35:44.918Z,8.10
2022-10-25T01:38:28.514Z,7.37
2022-10-25T01:41:08.932Z,6.77
2022-10-25T01:43:46.099Z,7.67
2022-10-25T01:46:22.686Z,7.50
2022-10-25T01:49:00.018Z,6.13
2022-10-25T01:51:30.399Z,6.13
2022-10-25T01:53:59.834Z,6.97
2022-10-25T01:56:34.290Z,5.73
2022-10-25T01:59:26.675Z,5.20
2022-10-25T02:02:04.510Z,4.97
2022-10-25T02:04:44.769Z,4.60
2022-10-25T02:07:18.890Z,3.87
2022-10-25T02:09:58.989Z,4.50
2022-10-25T02:12:34.417Z,4.70
2022-10-25T02:15:10.678Z,5.23
2022-10-25T02:17:45.210Z,6.13
2022-10-25T02:20:18.980Z,5.80
2022-10-25T02:22:49.186Z,6.10
2022-10-25T02:25:19.692Z,5.73
2022-10-25T02:27:50.324Z,5.17
2022-10-25T02:30:20.193Z,5.00
2022-10-25T02:32:49.809Z,4.73
2022-10-25T02:35:21.508Z,5.00
2022-10-25T02:37:50.902Z,5.67
2022-10-25T02:40:20.826Z,5.80
2022-10-25T02:42:50.282Z,6.27
2022-10-25T02:45:19.981Z,6.77
2022-10-25T02:47:49.587Z,6.90
2022-10-25T02:50:20.897Z,7.63
2022-10-25T02:52:50.237Z,7.60
2022-10-25T02:55:19.843Z,6.90
2022-10-25T02:57:48.733Z,6.57
2022-10-25T03:00:18.577Z,7.83
2022-10-25T03:02:48.333Z,7.43
2022-10-25T03:05:17.726Z,6.63
2022-10-25T03:07:49.179Z,6.60
2022-10-25T03:10:18.733Z,6.33
2022-10-25T03:12:49.455Z,6.20
2022-10-25T03:15:19.064Z,7.30
2022-10-25T03:17:48.951Z,6.63
2022-10-25T03:20:19.661Z,7.63
2022-10-25T03:22:52.624Z,7.37
2022-10-25T03:25:22.030Z,6.80
2022-10-25T03:27:51.332Z,7.13
2022-10-25T03:30:20.709Z,6.73
2022-10-25T03:32:49.996Z,6.63
2022-10-25T03:35:19.096Z,6.77
2022-10-25T03:37:50.213Z,7.00
2022-10-25T03:40:19.884Z,6.63
2022-10-25T03:42:49.293Z,6.13
2022-10-25T03:45:18.556Z,5.80
2022-10-25T03:47:48.076Z,6.23
2022-10-25T03:50:17.481Z,6.13
2022-10-25T03:52:46.700Z,7.50
2022-10-25T03:55:17.496Z,5.63
2022-10-25T03:57:47.228Z,7.33
2022-10-25T04:00:17.262Z,6.67
2022-10-25T04:02:46.734Z,6.07
2022-10-25T04:05:16.236Z,6.80
2022-10-25T04:07:45.591Z,6.97
2022-10-25T04:10:14.959Z,6.67
2022-10-25T04:12:46.309Z,6.20
2022-10-25T04:15:16.559Z,6.03
2022-10-25T04:17:46.521Z,5.97
2022-10-25T04:20:16.231Z,7.20
2022-10-25T04:22:45.369Z,6.37
2022-10-25T04:25:14.340Z,6.23
2022-10-25T04:27:45.202Z,6.30
2022-10-25T04:30:14.750Z,6.87
2022-10-25T04:32:44.335Z,6.57
2022-10-25T04:35:14.615Z,6.50
2022-10-25T04:37:43.670Z,7.97
2022-10-25T04:40:14.083Z,7.50
2022-10-25T04:42:45.721Z,8.67
2022-10-25T04:45:15.624Z,8.53
2022-10-25T04:47:44.702Z,8.53
2022-10-25T04:50:14.170Z,9.30
2022-10-25T04:52:43.752Z,9.83
2022-10-25T04:55:13.526Z,9.40
2022-10-25T04:57:42.890Z,9.67
2022-10-25T05:00:16.162Z,8.90
2022-10-25T05:02:46.180Z,8.93
2022-10-25T05:05:15.398Z,10.00
2022-10-25T05:07:44.663Z,10.40
2022-10-25T05:10:14.114Z,9.53
2022-10-25T05:12:43.780Z,10.47
2022-10-25T05:15:15.190Z,10.23
2022-10-25T05:17:44.562Z,9.87
2022-10-25T05:20:13.551Z,10.90
2022-10-25T05:22:42.710Z,10.77
2022-10-25T05:25:12.517Z,10.63
2022-10-25T05:27:41.987Z,10.50
2022-10-25T05:30:13.217Z,10.30
2022-10-25T05:32:44.635Z,11.53
2022-10-25T05:35:14.474Z,10.93
2022-10-25T05:37:43.921Z,10.57
2022-10-25T05:40:14.197Z,11.00
2022-10-25T05:42:43.482Z,10.73
2022-10-25T05:45:13.250Z,11.57
2022-10-25T05:47:44.398Z,11.37
2022-10-25T05:50:14.098Z,10.53
2022-10-25T05:52:44.832Z,10.87
2022-10-25T05:55:14.769Z,11.27
2022-10-25T05:57:44.846Z,10.37
2022-10-25T06:00:15.099Z,11.43
2022-10-25T06:02:46.269Z,10.60
2022-10-25T06:05:16.411Z,11.80
2022-10-25T06:07:45.913Z,10.87
2022-10-25T06:10:15.287Z,10.93
2022-10-25T06:12:44.485Z,11.57
2022-10-25T06:15:13.953Z,12.00
2022-10-25T06:17:43.881Z,11.30
2022-10-25T06:20:15.269Z,11.17
2022-10-25T06:22:44.319Z,11.80
2022-10-25T06:25:13.821Z,11.17
2022-10-25T06:27:43.802Z,10.63
2022-10-25T06:30:13.867Z,10.90
2022-10-25T06:32:43.160Z,10.17
2022-10-25T06:35:14.433Z,10.17
2022-10-25T06:37:43.625Z,9.53
2022-10-25T06:40:31.996Z,10.03
2022-10-25T06:43:04.182Z,10.33
2022-10-25T06:45:34.586Z,10.63
2022-10-25T06:48:06.141Z,11.07
2022-10-25T06:50:38.391Z,10.10
2022-10-25T06:53:10.359Z,11.23
2022-10-25T06:55:40.063Z,12.00
2022-10-25T06:58:10.232Z,12.03
2022-10-25T07:00:44.773Z,11.43
2022-10-25T07:03:31.388Z,13.03
2022-10-25T07:06:03.743Z,14.03
2022-10-25T07:08:33.380Z,13.37
2022-10-25T07:11:07.977Z,13.10
2022-10-25T07:13:42.644Z,12.97
2022-10-25T07:16:18.327Z,12.83
2022-10-25T07:18:48.964Z,11.13
2022-10-25T07:21:34.593Z,10.03
2022-10-25T07:24:08.848Z,9.37
2022-10-25T07:26:41.187Z,8.80
2022-10-25T07:29:10.687Z,7.30
2022-10-25T07:31:46.853Z,7.40
2022-10-25T07:34:21.911Z,6.77
2022-10-25T07:36:55.599Z,6.40
2022-10-25T07:39:33.946Z,6.07
2022-10-25T07:42:03.297Z,6.37
2022-10-25T07:44:36.141Z,5.40
2022-10-25T07:47:06.526Z,5.87
2022-10-25T07:49:40.361Z,5.93
2022-10-25T07:52:11.686Z,6.30
2022-10-25T07:54:41.421Z,5.20
2022-10-25T07:57:11.843Z,5.77
2022-10-25T07:59:42.262Z,6.23
2022-10-25T08:02:13.946Z,6.00
2022-10-25T08:04:43.709Z,5.70
2022-10-25T08:07:18.513Z,5.33
2022-10-25T08:09:49.447Z,5.13
2022-10-25T08:12:23.810Z,5.20
2022-10-25T08:14:55.483Z,5.50
2022-10-25T08:17:24.596Z,4.50
2022-10-25T08:19:57.717Z,5.07
2022-10-25T08:22:30.679Z,4.77
2022-10-25T08:25:03.930Z,5.23
2022-10-25T08:27:33.841Z,4.73
2022-10-25T08:30:03.841Z,4.50
2022-10-25T08:32:40.120Z,5.33
2022-10-25T08:35:11.414Z,4.87
2022-10-25T08:37:42.580Z,5.30
2022-10-25T08:40:19.615Z,5.90
2022-10-25T08:43:05.049Z,4.13
2022-10-25T08:45:38.985Z,4.13
2022-10-25T08:48:16.205Z,3.33
2022-10-25T08:50:50.525Z,3.15
2022-10-25T08:53:26.209Z,3.15
2022-10-25T08:56:15.156Z,3.45
2022-10-25T08:58:50.036Z,2.95
2022-10-25T09:01:25.957Z,3.35
2022-10-25T09:03:55.493Z,3.47
2022-10-25T09:06:35.713Z,3.40
2022-10-25T09:09:19.959Z,2.80
2022-10-25T09:11:58.532Z,2.67
2022-10-25T09:14:41.104Z,2.42
2022-10-25T09:17:19.937Z,2.33
2022-10-25T09:20:08.863Z,2.50
2022-10-25T09:22:48.012Z,2.60
2022-10-25T09:25:24.806Z,2.40
2022-10-25T09:28:01.890Z,2.22
2022-10-25T09:30:38.243Z,2.08
2022-10-25T09:33:14.528Z,2.00
2022-10-25T09:35:47.148Z,2.17
2022-10-25T09:38:21.108Z,2.90
2022-10-25T09:40:58.612Z,1.95
2022-10-25T09:43:33.726Z,2.10
2022-10-25T09:46:08.528Z,2.15
2022-10-25T09:48:46.699Z,1.60
2022-10-25T09:51:24.919Z,1.83
2022-10-25T09:53:55.947Z,1.80
2022-10-25T09:56:26.914Z,2.00
2022-10-25T09:58:57.363Z,1.93
2022-10-25T10:01:29.995Z,1.77
2022-10-25T10:04:17.599Z,1.80
2022-10-25T10:06:48.670Z,1.73
2022-10-25T10:09:19.638Z,1.50
2022-10-25T10:11:54.307Z,1.58
2022-10-25T10:14:34.643Z,1.50
2022-10-25T10:17:04.494Z,1.63
2022-10-25T10:19:34.423Z,1.52
2022-10-25T10:22:08.767Z,1.15
2022-10-25T10:24:40.795Z,1.30
2022-10-25T10:27:25.777Z,1.63
2022-10-25T10:30:00.304Z,1.60
2022-10-25T10:32:35.217Z,1.08
2022-10-25T10:35:06.771Z,1.30
2022-10-25T10:37:38.290Z,1.60
2022-10-25T10:40:25.957Z,1.85
2022-10-25T10:42:59.084Z,1.40
2022-10-25T10:45:29.186Z,1.42
2022-10-25T10:48:00.113Z,1.88
2022-10-25T10:50:33.158Z,1.38
2022-10-25T10:53:03.869Z,1.35
2022-10-25T10:55:35.721Z,1.75
2022-10-25T10:58:16.014Z,1.20
2022-10-25T11:00:53.310Z,1.95
2022-10-25T11:04:00.205Z,1.55
2022-10-25T11:06:44.685Z,1.27
2022-10-25T11:09:18.668Z,1.13
2022-10-25T11:12:08.228Z,1.00
2022-10-25T11:14:40.819Z,1.10
2022-10-25T11:17:14.868Z,1.15
2022-10-25T11:20:05.133Z,1.20
2022-10-25T11:22:57.146Z,1.40
2022-10-25T11:25:39.623Z,1.13
2022-10-25T11:28:23.661Z,1.10
2022-10-25T11:31:03.368Z,1.38
2022-10-25T11:33:47.374Z,1.77
2022-10-25T11:36:40.294Z,1.10
2022-10-25T11:39:22.340Z,1.20
2022-10-25T11:41:55.348Z,1.42
2022-10-25T11:44:46.681Z,1.00
2022-10-25T11:47:26.824Z,1.02
2022-10-25T11:50:16.034Z,1.60
2022-10-25T11:53:17.181Z,1.23
2022-10-25T11:55:51.756Z,1.00
2022-10-25T11:58:34.097Z,1.05
2022-10-25T12:01:15.796Z,1.45
2022-10-25T12:03:59.483Z,1.80
2022-10-25T12:06:36.784Z,1.30
2022-10-25T12:09:14.756Z,0.90
2022-10-25T12:11:47.863Z,0.98
2022-10-25T12:14:24.671Z,1.27
2022-10-25T12:16:53.592Z,3.85
2022-10-25T12:19:29.068Z,1.55
2022-10-25T12:22:02.150Z,2.92
2022-10-25T12:24:38.600Z,1.05
2022-10-25T12:27:08.839Z,1.00
2022-10-25T12:29:43.735Z,1.20
2022-10-25T12:32:19.678Z,0.98
2022-10-25T12:34:54.082Z,1.10
2022-10-25T12:37:31.169Z,1.50
2022-10-25T12:40:01.669Z,0.90
2022-10-25T12:42:37.446Z,1.40
2022-10-25T12:45:28.162Z,1.42
2022-10-25T12:48:14.833Z,0.90
2022-10-25T12:51:09.542Z,1.17
2022-10-25T12:54:25.488Z,1.08
2022-10-25T12:57:08.364Z,0.95
2022-10-25T12:59:52.455Z,1.45
2022-10-25T13:02:39.941Z,1.05
2022-10-25T13:05:47.293Z,1.48
2022-10-25T13:08:24.444Z,1.30
2022-10-25T13:11:00.709Z,1.25
2022-10-25T13:13:34.576Z,1.30
2022-10-25T13:16:06.549Z,0.98
2022-10-25T13:18:48.990Z,1.23
2022-10-25T13:21:40.179Z,1.30
2022-10-25T13:24:47.443Z,1.38
2022-10-25T13:27:23.158Z,1.48
2022-10-25T13:30:27.632Z,1.50
2022-10-25T13:33:36.401Z,1.58
2022-10-25T13:36:14.962Z,1.38
2022-10-25T13:38:44.988Z,1.20
2022-10-25T13:41:20.812Z,1.50
2022-10-25T13:44:04.991Z,1.38
2022-10-25T13:46:47.488Z,1.15
2022-10-25T13:49:34.665Z,1.45
2022-10-25T13:52:10.253Z,1.38
2022-10-25T13:54:49.780Z,1.52
2022-10-25T13:57:50.498Z,1.70
2022-10-25T14:00:42.183Z,1.25
2022-10-25T14:03:39.333Z,1.30
2022-10-25T14:06:28.272Z,1.23
2022-10-25T14:09:11.836Z,1.25
2022-10-25T14:11:50.069Z,1.63
2022-10-25T14:14:30.552Z,1.40
2022-10-25T14:17:13.869Z,1.48
2022-10-25T14:19:46.337Z,1.55
2022-10-25T14:22:18.841Z,1.45
2022-10-25T14:24:51.976Z,1.38
2022-10-25T14:27:32.840Z,1.20
2022-10-25T14:30:25.084Z,1.58
2022-10-25T14:32:57.547Z,1.63
2022-10-25T14:35:32.723Z,1.20
2022-10-25T14:38:03.059Z,1.65
2022-10-25T14:40:34.143Z,1.30
2022-10-25T14:43:25.840Z,1.50
2022-10-25T14:46:16.319Z,2.28
2022-10-25T14:48:48.318Z,1.55
2022-10-25T14:51:23.248Z,2.15
2022-10-25T14:53:57.129Z,1.25
2022-10-25T14:56:31.346Z,1.90
2022-10-25T14:59:02.756Z,2.10
2022-10-25T15:01:36.415Z,1.65
2022-10-25T15:04:06.049Z,1.70
2022-10-25T15:06:35.766Z,2.10
2022-10-25T15:09:41.285Z,2.03
2022-10-25T15:12:17.747Z,1.52
2022-10-25T15:14:49.112Z,1.60
2022-10-25T15:17:28.616Z,1.83
2022-10-25T15:20:24.770Z,1.70
2022-10-25T15:23:04.412Z,1.80
2022-10-25T15:25:39.058Z,1.80
2022-10-25T15:28:13.619Z,1.80
2022-10-25T15:30:46.908Z,2.00
2022-10-25T15:33:20.006Z,1.85
2022-10-25T15:35:52.918Z,1.57
2022-10-25T15:38:22.856Z,1.50
2022-10-25T15:40:52.614Z,2.17
2022-10-25T15:43:23.115Z,1.87
2022-10-25T15:45:53.842Z,1.70
2022-10-25T15:48:27.567Z,1.63
2022-10-25T15:50:58.631Z,1.70
2022-10-25T15:53:28.786Z,2.03
2022-10-25T15:55:58.750Z,2.33
2022-10-25T15:58:28.490Z,2.07
2022-10-25T16:00:58.069Z,2.10
2022-10-25T16:03:29.217Z,2.00
2022-10-25T16:05:58.855Z,2.10
2022-10-25T16:08:28.697Z,2.00
2022-10-25T16:11:00.190Z,1.97
2022-10-25T16:13:33.343Z,2.47
2022-10-25T16:16:11.835Z,2.27
2022-10-25T16:18:54.629Z,2.63
2022-10-25T16:21:24.994Z,2.33
2022-10-25T16:23:54.903Z,3.33
2022-10-25T16:26:29.225Z,4.07
2022-10-25T16:28:58.404Z,5.77
2022-10-25T16:31:28.275Z,3.83
2022-10-25T16:33:59.718Z,3.53
2022-10-25T16:36:29.645Z,3.60
2022-10-25T16:38:59.138Z,3.40
2022-10-25T16:41:31.041Z,4.40
2022-10-25T16:44:02.057Z,3.33
2022-10-25T16:46:31.784Z,4.23
2022-10-25T16:49:03.409Z,4.63
2022-10-25T16:51:34.809Z,4.67
2022-10-25T16:54:04.839Z,4.63
2022-10-25T16:56:36.032Z,3.97
2022-10-25T16:59:06.229Z,3.97
2022-10-25T17:01:40.050Z,4.47
2022-10-25T17:04:15.680Z,4.97
2022-10-25T17:06:46.134Z,5.30
2022-10-25T17:09:17.260Z,5.10
2022-10-25T17:11:47.873Z,5.33
2022-10-25T17:14:17.592Z,6.33
2022-10-25T17:16:47.690Z,6.40
2022-10-25T17:19:21.183Z,6.60
2022-10-25T17:21:52.389Z,6.40
2022-10-25T17:24:22.712Z,6.20
2022-10-25T17:26:52.528Z,5.57
2022-10-25T17:29:22.420Z,5.63
2022-10-25T17:31:53.383Z,5.23
2022-10-25T17:34:25.159Z,5.80
2022-10-25T17:36:54.887Z,5.57
2022-10-25T17:39:24.128Z,5.47
2022-10-25T17:41:53.743Z,5.50
2022-10-25T17:44:23.532Z,4.80
2022-10-25T17:46:52.813Z,5.37
2022-10-25T17:49:24.607Z,5.60
2022-10-25T17:51:54.945Z,6.10
2022-10-25T17:54:24.499Z,5.67
2022-10-25T17:56:58.955Z,4.83
2022-10-25T17:59:29.436Z,5.27
2022-10-25T18:02:00.072Z,5.73
2022-10-25T18:04:46.892Z,5.80
2022-10-25T18:07:22.469Z,5.33
2022-10-25T18:09:54.471Z,5.83
2022-10-25T18:12:25.799Z,5.97
2022-10-25T18:14:56.839Z,6.03
2022-10-25T18:17:26.356Z,6.10
2022-10-25T18:19:57.539Z,7.13
2022-10-25T18:22:27.202Z,7.67
2022-10-25T18:24:57.176Z,7.47
2022-10-25T18:27:26.807Z,7.30
2022-10-25T18:29:56.599Z,7.57
2022-10-25T18:32:33.584Z,6.77
2022-10-25T18:35:08.064Z,6.07
2022-10-25T18:37:37.717Z,5.37
2022-10-25T18:40:10.431Z,11.93
2022-10-25T18:42:40.679Z,12.40
2022-10-25T18:45:10.310Z,7.63
2022-10-25T18:47:41.265Z,5.40
2022-10-25T18:50:14.147Z,4.53
2022-10-25T18:52:43.828Z,4.50
2022-10-25T18:55:14.366Z,3.40
2022-10-25T18:57:44.191Z,3.47
2022-10-25T19:00:15.448Z,3.57
2022-10-25T19:02:47.914Z,4.07
2022-10-25T19:05:20.386Z,5.67
2022-10-25T19:07:51.168Z,5.87
2022-10-25T19:10:21.954Z,3.80
2022-10-25T19:12:53.407Z,3.30
2022-10-25T19:15:27.459Z,3.63
2022-10-25T19:17:58.511Z,3.37
2022-10-25T19:20:31.446Z,3.40
2022-10-25T19:23:02.109Z,5.60
2022-10-25T19:25:32.054Z,6.00
2022-10-25T19:28:02.001Z,5.53
2022-10-25T19:30:35.493Z,4.20
2022-10-25T19:33:08.154Z,5.13
2022-10-25T19:35:40.985Z,6.00
2022-10-25T19:38:10.627Z,5.63
2022-10-25T19:40:40.470Z,4.43
2022-10-25T19:43:10.488Z,5.63
2022-10-25T19:45:44.343Z,6.20
2022-10-25T19:48:14.550Z,6.83
2022-10-25T19:50:45.785Z,6.50
2022-10-25T19:53:15.615Z,6.67
2022-10-25T19:55:45.070Z,7.53
2022-10-25T19:58:14.980Z,7.73
2022-10-25T20:00:45.921Z,7.00
2022-10-25T20:03:15.981Z,7.20
2022-10-25T20:05:47.648Z,7.97
2022-10-25T20:08:17.068Z,7.90
2022-10-25T20:10:46.765Z,7.87
2022-10-25T20:13:17.278Z,7.43
2022-10-25T20:15:51.781Z,7.03
2022-10-25T20:18:21.723Z,7.80
2022-10-25T20:20:58.365Z,8.33
2022-10-25T20:23:28.152Z,9.07
2022-10-25T20:25:58.129Z,8.37
2022-10-25T20:28:27.601Z,9.03
2022-10-25T20:31:07.604Z,10.03
2022-10-25T20:33:37.376Z,9.40
2022-10-25T20:36:10.722Z,10.37
2022-10-25T20:38:47.198Z,9.57
2022-10-25T20:41:18.648Z,11.60
2022-10-25T20:43:50.177Z,11.27
2022-10-25T20:46:21.239Z,8.60
2022-10-25T20:48:51.433Z,9.20
2022-10-25T20:51:24.899Z,9.00
2022-10-25T20:53:55.325Z,8.77
2022-10-25T20:56:25.906Z,9.93
2022-10-25T20:58:55.620Z,8.60
2022-10-25T21:01:25.083Z,10.50
2022-10-25T21:03:55.676Z,11.60
2022-10-25T21:06:26.900Z,13.43
2022-10-25T21:08:56.934Z,14.20
2022-10-25T21:11:29.705Z,14.30
2022-10-25T21:13:59.174Z,13.83
2022-10-25T21:16:28.323Z,13.90
2022-10-25T21:18:57.416Z,13.17
2022-10-25T21:21:28.397Z,14.20
2022-10-25T21:24:00.013Z,14.83
2022-10-25T21:26:29.735Z,14.30
2022-10-25T21:28:59.179Z,14.07
2022-10-25T21:31:28.611Z,14.33
2022-10-25T21:34:01.302Z,14.50
2022-10-25T21:36:33.003Z,15.50
2022-10-25T21:39:02.991Z,14.90
2022-10-25T21:41:32.126Z,16.07
2022-10-25T21:44:01.919Z,15.53
2022-10-25T21:46:31.715Z,16.17
2022-10-25T21:49:01.665Z,15.57
2022-10-25T21:51:33.960Z,14.73
2022-10-25T21:54:04.354Z,13.47
2022-10-25T21:56:34.131Z,13.87
2022-10-25T21:59:03.947Z,14.17
2022-10-25T22:01:34.826Z,13.07
2022-10-25T22:04:04.422Z,11.27
2022-10-25T22:06:36.314Z,10.73
2022-10-25T22:09:06.894Z,10.83
2022-10-25T22:11:42.375Z,10.80
2022-10-25T22:14:15.493Z,10.10
2022-10-25T22:16:45.300Z,10.67
2022-10-25T22:19:18.066Z,10.57
2022-10-25T22:21:51.141Z,10.20
2022-10-25T22:24:21.198Z,9.70
2022-10-25T22:26:52.965Z,10.53
2022-10-25T22:29:23.081Z,12.53
2022-10-25T22:31:53.058Z,12.33
2022-10-25T22:34:22.214Z,12.10
2022-10-25T22:36:53.072Z,11.60
2022-10-25T22:39:23.107Z,11.93
2022-10-25T22:41:54.189Z,11.87
2022-10-25T22:44:24.210Z,14.23
2022-10-25T22:47:05.897Z,13.77
2022-10-25T22:49:36.038Z,13.30
2022-10-25T22:52:07.813Z,13.63
2022-10-25T22:54:38.449Z,13.73
2022-10-25T22:57:14.068Z,11.73
2022-10-25T22:59:45.365Z,11.73
2022-10-25T23:02:29.608Z,13.83
2022-10-25T23:04:59.469Z,14.27
2022-10-25T23:11:42.162Z,12.27
2022-10-25T23:14:15.066Z,12.57
2022-10-25T23:16:47.561Z,14.30
2022-10-25T23:27:33.775Z,13.00
2022-10-25T23:30:03.476Z,14.63
2022-10-25T23:32:34.058Z,14.13
2022-10-25T23:35:03.884Z,12.73
2022-10-25T23:37:33.579Z,12.67
2022-10-25T23:40:05.240Z,12.53
2022-10-25T23:42:36.392Z,11.67
2022-10-25T23:45:06.328Z,10.63
2022-10-25T23:47:36.265Z,11.57
2022-10-25T23:50:06.029Z,9.60
2022-10-25T23:52:35.616Z,9.23
2022-10-25T23:55:05.648Z,9.23
2022-10-25T23:57:36.488Z,7.80
